sensor_id;sensor_type;location;lat;lon;timestamp;temperature;humidity
39219;DHT22;24934;52.752;6.964;2023-05-13T00:01:16;10.60;99.90
39219;DHT22;24934;52.752;6.964;2023-05-13T00:03:42;10.50;99.90
39219;DHT22;24934;52.752;6.964;2023-05-13T00:06:08;10.50;99.90
39219;DHT22;24934;52.752;6.964;2023-05-13T00:08:33;10.50;99.90
39219;DHT22;24934;52.752;6.964;2023-05-13T00:10:59;10.50;99.90
39219;DHT22;24934;52.752;6.964;2023-05-13T00:13:25;10.50;99.90
39219;DHT22;24934;52.752;6.964;2023-05-13T00:15:51;10.50;99.90
39219;DHT22;24934;52.752;6.964;2023-05-13T00:18:17;10.50;99.90
39219;DHT22;24934;52.752;6.964;2023-05-13T00:20:43;10.40;99.90
39219;DHT22;24934;52.752;6.964;2023-05-13T00:23:09;10.40;99.90
39219;DHT22;24934;52.752;6.964;2023-05-13T00:25:37;10.30;99.90
39219;DHT22;24934;52.752;6.964;2023-05-13T00:28:03;10.20;99.90
39219;DHT22;24934;52.752;6.964;2023-05-13T00:30:29;10.20;99.90
39219;DHT22;24934;52.752;6.964;2023-05-13T00:32:55;10.10;99.90
39219;DHT22;24934;52.752;6.964;2023-05-13T00:35:20;10.10;99.90
39219;DHT22;24934;52.752;6.964;2023-05-13T00:37:47;10.00;99.90
39219;DHT22;24934;52.752;6.964;2023-05-13T00:40:22;10.00;99.90
39219;DHT22;24934;52.752;6.964;2023-05-13T00:42:49;10.00;99.90
39219;DHT22;24934;52.752;6.964;2023-05-13T00:45:14;9.90;99.90
39219;DHT22;24934;52.752;6.964;2023-05-13T00:47:41;9.90;99.90
39219;DHT22;24934;52.752;6.964;2023-05-13T00:50:08;9.90;99.90
39219;DHT22;24934;52.752;6.964;2023-05-13T00:52:36;9.80;99.90
39219;DHT22;24934;52.752;6.964;2023-05-13T00:55:03;9.80;99.90
39219;DHT22;24934;52.752;6.964;2023-05-13T00:57:29;9.70;99.90
39219;DHT22;24934;52.752;6.964;2023-05-13T00:59:55;9.70;99.90
39219;DHT22;24934;52.752;6.964;2023-05-13T01:04:58;9.60;99.90
39219;DHT22;24934;52.752;6.964;2023-05-13T01:10:18;9.50;99.90
39219;DHT22;24934;52.752;6.964;2023-05-13T01:12:52;9.50;99.90
39219;DHT22;24934;52.752;6.964;2023-05-13T01:15:25;9.40;99.90
39219;DHT22;24934;52.752;6.964;2023-05-13T01:17:59;9.40;99.90
39219;DHT22;24934;52.752;6.964;2023-05-13T01:20:29;9.40;99.90
39219;DHT22;24934;52.752;6.964;2023-05-13T01:22:55;9.30;99.90
39219;DHT22;24934;52.752;6.964;2023-05-13T01:25:22;9.30;99.90
39219;DHT22;24934;52.752;6.964;2023-05-13T01:27:48;9.30;99.90
39219;DHT22;24934;52.752;6.964;2023-05-13T01:30:15;9.30;99.90
39219;DHT22;24934;52.752;6.964;2023-05-13T01:32:41;9.30;99.90
39219;DHT22;24934;52.752;6.964;2023-05-13T01:35:07;9.30;99.90
39219;DHT22;24934;52.752;6.964;2023-05-13T01:37:33;9.30;99.90
39219;DHT22;24934;52.752;6.964;2023-05-13T01:40:00;9.30;99.90
39219;DHT22;24934;52.752;6.964;2023-05-13T01:42:28;9.20;99.90
39219;DHT22;24934;52.752;6.964;2023-05-13T01:44:53;9.20;99.90
39219;DHT22;24934;52.752;6.964;2023-05-13T01:47:19;9.20;99.90
39219;DHT22;24934;52.752;6.964;2023-05-13T01:49:45;9.20;99.90
39219;DHT22;24934;52.752;6.964;2023-05-13T01:52:11;9.10;99.90
39219;DHT22;24934;52.752;6.964;2023-05-13T01:54:36;9.10;99.90
39219;DHT22;24934;52.752;6.964;2023-05-13T01:57:02;9.10;99.90
39219;DHT22;24934;52.752;6.964;2023-05-13T01:59:28;9.10;99.90
39219;DHT22;24934;52.752;6.964;2023-05-13T02:02:01;9.00;99.90
39219;DHT22;24934;52.752;6.964;2023-05-13T02:04:28;9.00;99.90
39219;DHT22;24934;52.752;6.964;2023-05-13T02:06:54;9.00;99.90
39219;DHT22;24934;52.752;6.964;2023-05-13T02:09:20;9.00;99.90
39219;DHT22;24934;52.752;6.964;2023-05-13T02:11:46;9.00;99.90
39219;DHT22;24934;52.752;6.964;2023-05-13T02:14:12;9.00;99.90
39219;DHT22;24934;52.752;6.964;2023-05-13T02:16:38;8.90;99.90
39219;DHT22;24934;52.752;6.964;2023-05-13T02:19:03;8.90;99.90
39219;DHT22;24934;52.752;6.964;2023-05-13T02:21:29;8.90;99.90
39219;DHT22;24934;52.752;6.964;2023-05-13T02:23:55;8.90;99.90
39219;DHT22;24934;52.752;6.964;2023-05-13T02:26:20;8.80;99.90
39219;DHT22;24934;52.752;6.964;2023-05-13T02:28:47;8.80;99.90
39219;DHT22;24934;52.752;6.964;2023-05-13T02:31:13;8.80;99.90
39219;DHT22;24934;52.752;6.964;2023-05-13T02:33:38;8.80;99.90
39219;DHT22;24934;52.752;6.964;2023-05-13T02:36:04;8.80;99.90
39219;DHT22;24934;52.752;6.964;2023-05-13T02:38:30;8.70;99.90
39219;DHT22;24934;52.752;6.964;2023-05-13T02:40:55;8.70;99.90
39219;DHT22;24934;52.752;6.964;2023-05-13T02:43:21;8.70;99.90
39219;DHT22;24934;52.752;6.964;2023-05-13T02:45:49;8.70;99.90
39219;DHT22;24934;52.752;6.964;2023-05-13T02:48:15;8.70;99.90
39219;DHT22;24934;52.752;6.964;2023-05-13T02:50:40;8.70;99.90
39219;DHT22;24934;52.752;6.964;2023-05-13T02:53:06;8.60;99.90
39219;DHT22;24934;52.752;6.964;2023-05-13T02:55:32;8.60;99.90
39219;DHT22;24934;52.752;6.964;2023-05-13T02:57:57;8.60;99.90
39219;DHT22;24934;52.752;6.964;2023-05-13T03:00:23;8.50;99.90
39219;DHT22;24934;52.752;6.964;2023-05-13T03:02:49;8.60;99.90
39219;DHT22;24934;52.752;6.964;2023-05-13T03:05:14;8.50;99.90
39219;DHT22;24934;52.752;6.964;2023-05-13T03:07:40;8.50;99.90
39219;DHT22;24934;52.752;6.964;2023-05-13T03:10:06;8.50;99.90
39219;DHT22;24934;52.752;6.964;2023-05-13T03:12:32;8.50;99.90
39219;DHT22;24934;52.752;6.964;2023-05-13T03:14:58;8.50;99.90
39219;DHT22;24934;52.752;6.964;2023-05-13T03:17:24;8.50;99.90
39219;DHT22;24934;52.752;6.964;2023-05-13T03:19:50;8.50;99.90
39219;DHT22;24934;52.752;6.964;2023-05-13T03:22:16;8.40;99.90
39219;DHT22;24934;52.752;6.964;2023-05-13T03:24:41;8.40;99.90
39219;DHT22;24934;52.752;6.964;2023-05-13T03:27:07;8.40;99.90
39219;DHT22;24934;52.752;6.964;2023-05-13T03:29:33;8.40;99.90
39219;DHT22;24934;52.752;6.964;2023-05-13T03:31:58;8.40;99.90
39219;DHT22;24934;52.752;6.964;2023-05-13T03:34:25;8.40;99.90
39219;DHT22;24934;52.752;6.964;2023-05-13T03:36:51;8.40;99.90
39219;DHT22;24934;52.752;6.964;2023-05-13T03:39:17;8.40;99.90
39219;DHT22;24934;52.752;6.964;2023-05-13T03:41:42;8.30;99.90
39219;DHT22;24934;52.752;6.964;2023-05-13T03:44:11;8.30;99.90
39219;DHT22;24934;52.752;6.964;2023-05-13T03:46:36;8.30;99.90
39219;DHT22;24934;52.752;6.964;2023-05-13T03:49:02;8.30;99.90
39219;DHT22;24934;52.752;6.964;2023-05-13T03:51:29;8.30;99.90
39219;DHT22;24934;52.752;6.964;2023-05-13T03:53:55;8.30;99.90
39219;DHT22;24934;52.752;6.964;2023-05-13T03:56:21;8.30;99.90
39219;DHT22;24934;52.752;6.964;2023-05-13T03:58:46;8.30;99.90
39219;DHT22;24934;52.752;6.964;2023-05-13T04:01:12;8.30;99.90
39219;DHT22;24934;52.752;6.964;2023-05-13T04:03:37;8.30;99.90
39219;DHT22;24934;52.752;6.964;2023-05-13T04:06:03;8.40;99.90
39219;DHT22;24934;52.752;6.964;2023-05-13T04:08:29;8.40;99.90
39219;DHT22;24934;52.752;6.964;2023-05-13T04:10:54;8.50;99.90
39219;DHT22;24934;52.752;6.964;2023-05-13T04:13:21;8.50;99.90
39219;DHT22;24934;52.752;6.964;2023-05-13T04:15:47;8.60;99.90
39219;DHT22;24934;52.752;6.964;2023-05-13T04:18:13;8.70;99.90
39219;DHT22;24934;52.752;6.964;2023-05-13T04:20:39;8.70;99.90
39219;DHT22;24934;52.752;6.964;2023-05-13T04:23:06;8.80;99.90
39219;DHT22;24934;52.752;6.964;2023-05-13T04:25:35;8.90;99.90
39219;DHT22;24934;52.752;6.964;2023-05-13T04:28:04;8.90;99.90
39219;DHT22;24934;52.752;6.964;2023-05-13T04:30:30;9.00;99.90
39219;DHT22;24934;52.752;6.964;2023-05-13T04:32:55;9.00;99.90
39219;DHT22;24934;52.752;6.964;2023-05-13T04:35:21;9.10;99.90
39219;DHT22;24934;52.752;6.964;2023-05-13T04:37:47;9.10;99.90
39219;DHT22;24934;52.752;6.964;2023-05-13T04:40:14;9.20;99.90
39219;DHT22;24934;52.752;6.964;2023-05-13T04:42:39;9.20;99.90
39219;DHT22;24934;52.752;6.964;2023-05-13T04:45:08;9.20;99.90
39219;DHT22;24934;52.752;6.964;2023-05-13T04:47:43;9.20;99.90
39219;DHT22;24934;52.752;6.964;2023-05-13T04:50:08;9.30;99.90
39219;DHT22;24934;52.752;6.964;2023-05-13T04:52:34;9.40;99.90
39219;DHT22;24934;52.752;6.964;2023-05-13T04:55:01;9.40;99.90
39219;DHT22;24934;52.752;6.964;2023-05-13T04:57:27;9.50;99.90
39219;DHT22;24934;52.752;6.964;2023-05-13T04:59:52;9.50;99.90
39219;DHT22;24934;52.752;6.964;2023-05-13T05:02:18;9.70;99.90
39219;DHT22;24934;52.752;6.964;2023-05-13T05:04:44;10.10;99.90
39219;DHT22;24934;52.752;6.964;2023-05-13T05:07:09;10.30;99.90
39219;DHT22;24934;52.752;6.964;2023-05-13T05:09:35;10.30;99.90
39219;DHT22;24934;52.752;6.964;2023-05-13T05:12:00;10.30;99.90
39219;DHT22;24934;52.752;6.964;2023-05-13T05:14:26;10.30;99.90
39219;DHT22;24934;52.752;6.964;2023-05-13T05:16:51;10.30;99.90
39219;DHT22;24934;52.752;6.964;2023-05-13T05:19:17;10.40;99.90
39219;DHT22;24934;52.752;6.964;2023-05-13T05:21:49;10.40;99.90
39219;DHT22;24934;52.752;6.964;2023-05-13T05:24:14;10.40;99.90
39219;DHT22;24934;52.752;6.964;2023-05-13T05:26:40;10.50;99.90
39219;DHT22;24934;52.752;6.964;2023-05-13T05:29:06;10.50;99.90
39219;DHT22;24934;52.752;6.964;2023-05-13T05:31:31;10.60;99.90
39219;DHT22;24934;52.752;6.964;2023-05-13T05:33:57;10.80;99.90
39219;DHT22;24934;52.752;6.964;2023-05-13T05:36:23;10.90;99.90
39219;DHT22;24934;52.752;6.964;2023-05-13T05:38:49;11.00;99.90
39219;DHT22;24934;52.752;6.964;2023-05-13T05:41:15;11.10;99.90
39219;DHT22;24934;52.752;6.964;2023-05-13T05:43:40;11.10;99.90
39219;DHT22;24934;52.752;6.964;2023-05-13T05:46:06;11.20;99.90
39219;DHT22;24934;52.752;6.964;2023-05-13T05:48:32;11.20;99.90
39219;DHT22;24934;52.752;6.964;2023-05-13T05:50:57;11.30;99.90
39219;DHT22;24934;52.752;6.964;2023-05-13T05:53:23;11.40;99.90
39219;DHT22;24934;52.752;6.964;2023-05-13T05:55:48;11.40;99.90
39219;DHT22;24934;52.752;6.964;2023-05-13T05:58:15;11.40;99.90
39219;DHT22;24934;52.752;6.964;2023-05-13T06:00:40;11.50;99.90
39219;DHT22;24934;52.752;6.964;2023-05-13T06:03:06;11.50;99.90
39219;DHT22;24934;52.752;6.964;2023-05-13T06:05:32;11.60;99.90
39219;DHT22;24934;52.752;6.964;2023-05-13T06:07:57;11.60;99.90
39219;DHT22;24934;52.752;6.964;2023-05-13T06:10:23;11.70;99.90
39219;DHT22;24934;52.752;6.964;2023-05-13T06:12:48;11.70;99.90
39219;DHT22;24934;52.752;6.964;2023-05-13T06:15:17;11.80;99.90
39219;DHT22;24934;52.752;6.964;2023-05-13T06:17:42;11.90;99.90
39219;DHT22;24934;52.752;6.964;2023-05-13T06:20:08;11.90;99.90
39219;DHT22;24934;52.752;6.964;2023-05-13T06:22:34;12.00;99.90
39219;DHT22;24934;52.752;6.964;2023-05-13T06:24:59;12.00;99.90
39219;DHT22;24934;52.752;6.964;2023-05-13T06:27:25;12.10;99.90
39219;DHT22;24934;52.752;6.964;2023-05-13T06:29:51;12.10;99.90
39219;DHT22;24934;52.752;6.964;2023-05-13T06:32:16;12.20;99.90
39219;DHT22;24934;52.752;6.964;2023-05-13T06:34:42;12.20;99.90
39219;DHT22;24934;52.752;6.964;2023-05-13T06:37:13;12.30;99.90
39219;DHT22;24934;52.752;6.964;2023-05-13T06:39:39;12.40;99.90
39219;DHT22;24934;52.752;6.964;2023-05-13T06:42:05;12.50;99.90
39219;DHT22;24934;52.752;6.964;2023-05-13T06:44:31;12.60;99.90
39219;DHT22;24934;52.752;6.964;2023-05-13T06:46:56;12.70;99.90
39219;DHT22;24934;52.752;6.964;2023-05-13T06:49:22;12.80;99.90
39219;DHT22;24934;52.752;6.964;2023-05-13T06:51:50;12.90;99.90
39219;DHT22;24934;52.752;6.964;2023-05-13T06:54:16;13.00;99.90
39219;DHT22;24934;52.752;6.964;2023-05-13T06:56:42;13.10;99.90
39219;DHT22;24934;52.752;6.964;2023-05-13T06:59:08;13.20;99.90
39219;DHT22;24934;52.752;6.964;2023-05-13T07:01:33;13.30;99.90
39219;DHT22;24934;52.752;6.964;2023-05-13T07:03:59;13.40;99.90
39219;DHT22;24934;52.752;6.964;2023-05-13T07:06:25;13.50;99.90
39219;DHT22;24934;52.752;6.964;2023-05-13T07:08:50;13.70;99.90
39219;DHT22;24934;52.752;6.964;2023-05-13T07:11:16;13.80;99.90
39219;DHT22;24934;52.752;6.964;2023-05-13T07:13:41;14.00;99.90
39219;DHT22;24934;52.752;6.964;2023-05-13T07:16:08;14.10;99.90
39219;DHT22;24934;52.752;6.964;2023-05-13T07:18:34;14.20;99.90
39219;DHT22;24934;52.752;6.964;2023-05-13T07:20:59;14.30;99.90
39219;DHT22;24934;52.752;6.964;2023-05-13T07:23:25;14.40;99.90
39219;DHT22;24934;52.752;6.964;2023-05-13T07:25:51;14.50;99.90
39219;DHT22;24934;52.752;6.964;2023-05-13T07:28:18;14.60;99.90
39219;DHT22;24934;52.752;6.964;2023-05-13T07:30:45;14.80;99.90
39219;DHT22;24934;52.752;6.964;2023-05-13T07:33:11;14.90;99.90
39219;DHT22;24934;52.752;6.964;2023-05-13T07:35:37;15.00;99.90
39219;DHT22;24934;52.752;6.964;2023-05-13T07:38:03;15.00;99.90
39219;DHT22;24934;52.752;6.964;2023-05-13T07:40:29;15.10;99.90
39219;DHT22;24934;52.752;6.964;2023-05-13T07:42:54;15.30;99.90
39219;DHT22;24934;52.752;6.964;2023-05-13T07:45:20;15.50;99.90
39219;DHT22;24934;52.752;6.964;2023-05-13T07:47:46;15.70;99.90
39219;DHT22;24934;52.752;6.964;2023-05-13T07:50:15;16.20;99.90
39219;DHT22;24934;52.752;6.964;2023-05-13T07:52:40;17.40;99.90
39219;DHT22;24934;52.752;6.964;2023-05-13T07:55:10;18.80;99.90
39219;DHT22;24934;52.752;6.964;2023-05-13T07:57:38;20.40;99.90
39219;DHT22;24934;52.752;6.964;2023-05-13T08:00:05;21.80;99.90
39219;DHT22;24934;52.752;6.964;2023-05-13T08:02:30;22.80;99.90
39219;DHT22;24934;52.752;6.964;2023-05-13T08:05:02;23.40;99.90
39219;DHT22;24934;52.752;6.964;2023-05-13T08:07:27;24.20;99.90
39219;DHT22;24934;52.752;6.964;2023-05-13T08:09:53;25.10;99.90
39219;DHT22;24934;52.752;6.964;2023-05-13T08:12:19;25.50;99.90
39219;DHT22;24934;52.752;6.964;2023-05-13T08:14:45;25.40;99.90
39219;DHT22;24934;52.752;6.964;2023-05-13T08:17:10;26.00;99.90
39219;DHT22;24934;52.752;6.964;2023-05-13T08:19:37;26.20;99.90
39219;DHT22;24934;52.752;6.964;2023-05-13T08:22:03;26.40;99.90
39219;DHT22;24934;52.752;6.964;2023-05-13T08:24:28;27.40;99.90
39219;DHT22;24934;52.752;6.964;2023-05-13T08:26:54;27.50;99.90
39219;DHT22;24934;52.752;6.964;2023-05-13T08:29:20;27.40;99.90
39219;DHT22;24934;52.752;6.964;2023-05-13T08:31:45;27.70;99.90
39219;DHT22;24934;52.752;6.964;2023-05-13T08:34:11;27.20;99.90
39219;DHT22;24934;52.752;6.964;2023-05-13T08:36:37;27.20;99.90
39219;DHT22;24934;52.752;6.964;2023-05-13T08:39:02;27.60;99.90
39219;DHT22;24934;52.752;6.964;2023-05-13T08:41:29;27.30;99.90
39219;DHT22;24934;52.752;6.964;2023-05-13T08:43:57;27.40;99.90
39219;DHT22;24934;52.752;6.964;2023-05-13T08:46:26;27.70;99.90
39219;DHT22;24934;52.752;6.964;2023-05-13T08:48:54;28.00;99.90
39219;DHT22;24934;52.752;6.964;2023-05-13T08:51:20;28.10;99.60
39219;DHT22;24934;52.752;6.964;2023-05-13T08:53:46;28.10;99.90
39219;DHT22;24934;52.752;6.964;2023-05-13T08:56:13;28.30;99.90
39219;DHT22;24934;52.752;6.964;2023-05-13T08:58:38;28.00;99.30
39219;DHT22;24934;52.752;6.964;2023-05-13T09:01:04;28.30;99.60
39219;DHT22;24934;52.752;6.964;2023-05-13T09:03:32;28.50;99.90
39219;DHT22;24934;52.752;6.964;2023-05-13T09:06:00;28.90;99.80
39219;DHT22;24934;52.752;6.964;2023-05-13T09:08:25;29.20;98.40
39219;DHT22;24934;52.752;6.964;2023-05-13T09:10:52;29.30;98.00
39219;DHT22;24934;52.752;6.964;2023-05-13T09:13:20;29.40;99.90
39219;DHT22;24934;52.752;6.964;2023-05-13T09:15:46;29.40;98.80
39219;DHT22;24934;52.752;6.964;2023-05-13T09:18:14;29.70;97.20
39219;DHT22;24934;52.752;6.964;2023-05-13T09:20:39;29.80;98.50
39219;DHT22;24934;52.752;6.964;2023-05-13T09:23:07;29.60;97.40
39219;DHT22;24934;52.752;6.964;2023-05-13T09:25:35;30.00;96.80
39219;DHT22;24934;52.752;6.964;2023-05-13T09:28:03;29.70;97.50
39219;DHT22;24934;52.752;6.964;2023-05-13T09:33:17;29.80;96.60
39219;DHT22;24934;52.752;6.964;2023-05-13T09:35:53;29.40;96.30
39219;DHT22;24934;52.752;6.964;2023-05-13T09:38:23;29.60;96.50
39219;DHT22;24934;52.752;6.964;2023-05-13T09:40:50;29.50;96.50
39219;DHT22;24934;52.752;6.964;2023-05-13T09:43:21;29.00;97.20
39219;DHT22;24934;52.752;6.964;2023-05-13T09:45:47;29.30;96.40
39219;DHT22;24934;52.752;6.964;2023-05-13T09:48:13;29.20;97.00
39219;DHT22;24934;52.752;6.964;2023-05-13T09:50:49;29.00;95.10
39219;DHT22;24934;52.752;6.964;2023-05-13T09:53:16;28.90;96.10
39219;DHT22;24934;52.752;6.964;2023-05-13T09:55:49;28.90;94.30
39219;DHT22;24934;52.752;6.964;2023-05-13T09:58:15;29.10;94.60
39219;DHT22;24934;52.752;6.964;2023-05-13T10:00:42;28.70;95.30
39219;DHT22;24934;52.752;6.964;2023-05-13T10:03:08;28.60;94.70
39219;DHT22;24934;52.752;6.964;2023-05-13T10:05:34;28.50;94.90
39219;DHT22;24934;52.752;6.964;2023-05-13T10:08:02;27.90;95.60
39219;DHT22;24934;52.752;6.964;2023-05-13T10:10:30;28.00;95.70
39219;DHT22;24934;52.752;6.964;2023-05-13T10:12:58;28.00;95.30
39219;DHT22;24934;52.752;6.964;2023-05-13T10:15:31;28.10;95.20
39219;DHT22;24934;52.752;6.964;2023-05-13T10:18:01;28.40;94.00
39219;DHT22;24934;52.752;6.964;2023-05-13T10:20:27;28.70;94.00
39219;DHT22;24934;52.752;6.964;2023-05-13T10:22:54;28.80;93.30
39219;DHT22;24934;52.752;6.964;2023-05-13T10:25:20;29.40;92.70
39219;DHT22;24934;52.752;6.964;2023-05-13T10:27:47;29.30;92.80
39219;DHT22;24934;52.752;6.964;2023-05-13T10:30:13;29.60;91.90
39219;DHT22;24934;52.752;6.964;2023-05-13T10:32:42;29.30;92.20
39219;DHT22;24934;52.752;6.964;2023-05-13T10:35:13;29.20;92.30
39219;DHT22;24934;52.752;6.964;2023-05-13T10:43:26;29.60;92.90
39219;DHT22;24934;52.752;6.964;2023-05-13T10:45:58;30.10;91.60
39219;DHT22;24934;52.752;6.964;2023-05-13T10:48:24;30.10;92.00
39219;DHT22;24934;52.752;6.964;2023-05-13T10:50:56;29.70;90.90
39219;DHT22;24934;52.752;6.964;2023-05-13T10:53:28;29.80;92.30
39219;DHT22;24934;52.752;6.964;2023-05-13T10:55:55;30.10;90.60
39219;DHT22;24934;52.752;6.964;2023-05-13T10:58:30;30.00;91.00
39219;DHT22;24934;52.752;6.964;2023-05-13T11:01:26;29.70;91.90
39219;DHT22;24934;52.752;6.964;2023-05-13T11:04:02;30.00;92.30
39219;DHT22;24934;52.752;6.964;2023-05-13T11:06:36;29.40;91.90
39219;DHT22;24934;52.752;6.964;2023-05-13T11:11:53;29.20;91.10
39219;DHT22;24934;52.752;6.964;2023-05-13T11:14:22;29.20;90.50
39219;DHT22;24934;52.752;6.964;2023-05-13T11:19:34;29.20;89.90
39219;DHT22;24934;52.752;6.964;2023-05-13T11:22:07;29.20;90.00
39219;DHT22;24934;52.752;6.964;2023-05-13T11:24:33;29.40;90.30
39219;DHT22;24934;52.752;6.964;2023-05-13T11:27:14;29.10;87.60
39219;DHT22;24934;52.752;6.964;2023-05-13T11:29:51;28.50;85.60
39219;DHT22;24934;52.752;6.964;2023-05-13T11:35:31;28.70;90.60
39219;DHT22;24934;52.752;6.964;2023-05-13T11:37:58;28.70;84.60
39219;DHT22;24934;52.752;6.964;2023-05-13T11:40:26;28.70;87.80
39219;DHT22;24934;52.752;6.964;2023-05-13T11:42:56;28.50;87.40
39219;DHT22;24934;52.752;6.964;2023-05-13T11:45:23;28.30;84.60
39219;DHT22;24934;52.752;6.964;2023-05-13T11:47:49;27.70;84.70
39219;DHT22;24934;52.752;6.964;2023-05-13T11:50:26;27.10;85.60
39219;DHT22;24934;52.752;6.964;2023-05-13T11:52:54;27.00;88.10
39219;DHT22;24934;52.752;6.964;2023-05-13T11:57:53;27.00;84.60
39219;DHT22;24934;52.752;6.964;2023-05-13T12:02:54;26.40;88.30
39219;DHT22;24934;52.752;6.964;2023-05-13T12:05:20;27.10;90.00
39219;DHT22;24934;52.752;6.964;2023-05-13T12:07:46;27.00;86.00
39219;DHT22;24934;52.752;6.964;2023-05-13T12:10:12;26.90;85.70
39219;DHT22;24934;52.752;6.964;2023-05-13T12:12:40;26.90;88.30
39219;DHT22;24934;52.752;6.964;2023-05-13T12:15:12;27.10;87.00
39219;DHT22;24934;52.752;6.964;2023-05-13T12:17:39;26.80;83.70
39219;DHT22;24934;52.752;6.964;2023-05-13T12:20:09;27.00;84.60
39219;DHT22;24934;52.752;6.964;2023-05-13T12:22:59;27.20;86.20
39219;DHT22;24934;52.752;6.964;2023-05-13T12:25:36;27.00;87.70
39219;DHT22;24934;52.752;6.964;2023-05-13T12:28:17;27.30;86.50
39219;DHT22;24934;52.752;6.964;2023-05-13T12:30:51;27.30;86.30
39219;DHT22;24934;52.752;6.964;2023-05-13T12:33:26;27.10;84.30
39219;DHT22;24934;52.752;6.964;2023-05-13T12:38:38;27.20;84.50
39219;DHT22;24934;52.752;6.964;2023-05-13T12:41:13;27.30;83.40
39219;DHT22;24934;52.752;6.964;2023-05-13T12:43:44;27.40;83.80
39219;DHT22;24934;52.752;6.964;2023-05-13T12:46:10;27.60;84.70
39219;DHT22;24934;52.752;6.964;2023-05-13T12:48:38;27.40;86.50
39219;DHT22;24934;52.752;6.964;2023-05-13T12:51:04;27.30;85.50
39219;DHT22;24934;52.752;6.964;2023-05-13T12:53:30;27.20;83.00
39219;DHT22;24934;52.752;6.964;2023-05-13T12:55:56;27.30;86.90
39219;DHT22;24934;52.752;6.964;2023-05-13T12:58:22;27.40;82.00
39219;DHT22;24934;52.752;6.964;2023-05-13T13:00:47;27.40;83.90
39219;DHT22;24934;52.752;6.964;2023-05-13T13:03:19;27.10;85.10
39219;DHT22;24934;52.752;6.964;2023-05-13T13:05:46;27.30;85.30
39219;DHT22;24934;52.752;6.964;2023-05-13T13:08:11;27.10;83.80
39219;DHT22;24934;52.752;6.964;2023-05-13T13:10:37;26.60;83.90
39219;DHT22;24934;52.752;6.964;2023-05-13T13:13:03;26.10;87.50
39219;DHT22;24934;52.752;6.964;2023-05-13T13:15:29;25.50;84.80
39219;DHT22;24934;52.752;6.964;2023-05-13T13:17:57;25.50;88.30
39219;DHT22;24934;52.752;6.964;2023-05-13T13:20:23;25.90;87.00
39219;DHT22;24934;52.752;6.964;2023-05-13T13:22:49;26.20;87.00
39219;DHT22;24934;52.752;6.964;2023-05-13T13:25:15;26.10;83.80
39219;DHT22;24934;52.752;6.964;2023-05-13T13:27:43;25.80;85.90
39219;DHT22;24934;52.752;6.964;2023-05-13T13:30:09;25.10;88.30
39219;DHT22;24934;52.752;6.964;2023-05-13T13:32:39;25.20;87.60
39219;DHT22;24934;52.752;6.964;2023-05-13T13:35:05;25.20;86.50
39219;DHT22;24934;52.752;6.964;2023-05-13T13:37:30;25.30;90.50
39219;DHT22;24934;52.752;6.964;2023-05-13T13:39:58;26.10;88.10
39219;DHT22;24934;52.752;6.964;2023-05-13T13:42:24;26.80;88.80
39219;DHT22;24934;52.752;6.964;2023-05-13T13:44:52;27.20;85.30
39219;DHT22;24934;52.752;6.964;2023-05-13T13:47:18;27.30;83.20
39219;DHT22;24934;52.752;6.964;2023-05-13T13:49:43;27.40;84.10
39219;DHT22;24934;52.752;6.964;2023-05-13T13:52:09;27.10;85.80
39219;DHT22;24934;52.752;6.964;2023-05-13T13:54:35;27.00;84.30
39219;DHT22;24934;52.752;6.964;2023-05-13T13:57:01;27.40;85.20
39219;DHT22;24934;52.752;6.964;2023-05-13T13:59:29;27.30;82.30
39219;DHT22;24934;52.752;6.964;2023-05-13T14:01:55;27.10;85.70
39219;DHT22;24934;52.752;6.964;2023-05-13T14:04:21;26.80;82.50
39219;DHT22;24934;52.752;6.964;2023-05-13T14:06:52;26.10;84.80
39219;DHT22;24934;52.752;6.964;2023-05-13T14:09:19;25.70;84.40
39219;DHT22;24934;52.752;6.964;2023-05-13T14:11:45;25.40;84.60
39219;DHT22;24934;52.752;6.964;2023-05-13T14:14:11;25.70;83.70
39219;DHT22;24934;52.752;6.964;2023-05-13T14:16:37;26.00;83.70
39219;DHT22;24934;52.752;6.964;2023-05-13T14:19:03;26.10;85.20
39219;DHT22;24934;52.752;6.964;2023-05-13T14:21:28;25.90;87.00
39219;DHT22;24934;52.752;6.964;2023-05-13T14:23:55;26.20;90.30
39219;DHT22;24934;52.752;6.964;2023-05-13T14:26:23;26.30;89.40
39219;DHT22;24934;52.752;6.964;2023-05-13T14:28:50;26.20;88.50
39219;DHT22;24934;52.752;6.964;2023-05-13T14:31:15;26.20;84.50
39219;DHT22;24934;52.752;6.964;2023-05-13T14:33:41;26.30;86.30
39219;DHT22;24934;52.752;6.964;2023-05-13T14:36:07;26.00;89.50
39219;DHT22;24934;52.752;6.964;2023-05-13T14:38:35;25.80;90.00
39219;DHT22;24934;52.752;6.964;2023-05-13T14:41:04;26.00;89.10
39219;DHT22;24934;52.752;6.964;2023-05-13T14:43:29;26.00;83.90
39219;DHT22;24934;52.752;6.964;2023-05-13T14:45:55;26.10;83.20
39219;DHT22;24934;52.752;6.964;2023-05-13T14:48:21;26.40;86.20
39219;DHT22;24934;52.752;6.964;2023-05-13T14:50:46;26.40;86.30
39219;DHT22;24934;52.752;6.964;2023-05-13T14:53:12;26.40;84.80
39219;DHT22;24934;52.752;6.964;2023-05-13T14:55:38;26.30;84.70
39219;DHT22;24934;52.752;6.964;2023-05-13T14:58:04;25.90;87.40
39219;DHT22;24934;52.752;6.964;2023-05-13T15:00:30;25.50;87.50
39219;DHT22;24934;52.752;6.964;2023-05-13T15:02:59;25.70;87.20
39219;DHT22;24934;52.752;6.964;2023-05-13T15:05:25;25.90;85.70
39219;DHT22;24934;52.752;6.964;2023-05-13T15:07:51;25.80;85.10
39219;DHT22;24934;52.752;6.964;2023-05-13T15:10:16;26.00;82.90
39219;DHT22;24934;52.752;6.964;2023-05-13T15:12:42;25.90;84.90
39219;DHT22;24934;52.752;6.964;2023-05-13T15:15:08;25.70;85.80
39219;DHT22;24934;52.752;6.964;2023-05-13T15:17:35;25.50;87.30
39219;DHT22;24934;52.752;6.964;2023-05-13T15:20:00;25.30;84.70
39219;DHT22;24934;52.752;6.964;2023-05-13T15:22:26;25.20;85.90
39219;DHT22;24934;52.752;6.964;2023-05-13T15:24:54;25.20;88.80
39219;DHT22;24934;52.752;6.964;2023-05-13T15:27:20;25.20;89.10
39219;DHT22;24934;52.752;6.964;2023-05-13T15:29:46;25.00;88.10
39219;DHT22;24934;52.752;6.964;2023-05-13T15:32:11;24.80;88.00
39219;DHT22;24934;52.752;6.964;2023-05-13T15:34:37;24.70;86.70
39219;DHT22;24934;52.752;6.964;2023-05-13T15:37:03;24.60;88.10
39219;DHT22;24934;52.752;6.964;2023-05-13T15:39:29;24.50;87.70
39219;DHT22;24934;52.752;6.964;2023-05-13T15:41:54;24.30;88.60
39219;DHT22;24934;52.752;6.964;2023-05-13T15:44:20;24.30;90.10
39219;DHT22;24934;52.752;6.964;2023-05-13T15:46:46;24.10;89.00
39219;DHT22;24934;52.752;6.964;2023-05-13T15:49:13;24.10;90.30
39219;DHT22;24934;52.752;6.964;2023-05-13T15:51:39;24.00;89.60
39219;DHT22;24934;52.752;6.964;2023-05-13T15:54:04;23.90;90.00
39219;DHT22;24934;52.752;6.964;2023-05-13T15:56:30;23.80;90.30
39219;DHT22;24934;52.752;6.964;2023-05-13T15:58:55;23.90;91.00
39219;DHT22;24934;52.752;6.964;2023-05-13T16:01:21;23.70;91.50
39219;DHT22;24934;52.752;6.964;2023-05-13T16:03:47;23.60;91.20